createdAt,value
2019-01-12T00:00:53.083Z,2.10
2019-01-12T00:03:20.767Z,2.10
2019-01-12T00:05:48.511Z,2.20
2019-01-12T00:08:16.541Z,2.10
2019-01-12T00:10:44.564Z,2.10
2019-01-12T00:13:12.370Z,2.20
2019-01-12T00:15:40.113Z,2.30
2019-01-12T00:18:07.921Z,2.30
2019-01-12T00:20:35.844Z,2.30
2019-01-12T00:23:03.876Z,2.30
2019-01-12T00:25:31.636Z,2.30
2019-01-12T00:27:59.559Z,2.30
2019-01-12T00:30:27.312Z,2.20
2019-01-12T00:32:56.005Z,2.20
2019-01-12T00:35:23.767Z,2.20
2019-01-12T00:37:51.342Z,2.20
2019-01-12T00:40:19.007Z,2.20
2019-01-12T00:42:46.780Z,2.30
2019-01-12T00:45:15.046Z,2.30
2019-01-12T00:47:42.706Z,2.30
2019-01-12T00:50:12.794Z,2.20
2019-01-12T00:52:40.449Z,2.30
2019-01-12T00:55:08.323Z,2.30
2019-01-12T00:57:36.214Z,2.30
2019-01-12T01:00:08.630Z,2.30
2019-01-12T01:02:36.710Z,2.30
2019-01-12T01:05:05.488Z,2.40
2019-01-12T01:07:33.624Z,2.40
2019-01-12T01:10:01.681Z,2.50
2019-01-12T01:12:29.951Z,2.40
2019-01-12T01:14:57.779Z,2.50
2019-01-12T01:17:25.459Z,2.50
2019-01-12T01:19:53.136Z,2.50
2019-01-12T01:22:20.882Z,2.50
2019-01-12T01:24:48.659Z,2.50
2019-01-12T01:27:16.586Z,2.50
2019-01-12T01:29:44.165Z,2.60
2019-01-12T01:32:11.952Z,2.60
2019-01-12T01:34:39.882Z,2.60
2019-01-12T01:37:07.638Z,2.60
2019-01-12T01:39:35.334Z,2.60
2019-01-12T01:42:03.105Z,2.60
2019-01-12T01:44:31.911Z,2.60
2019-01-12T01:46:59.556Z,2.60
2019-01-12T01:49:27.232Z,2.60
2019-01-12T01:51:54.979Z,2.60
2019-01-12T01:54:22.661Z,2.60
2019-01-12T01:56:50.310Z,2.50
2019-01-12T01:59:18.150Z,2.60
2019-01-12T02:01:46.052Z,2.60
2019-01-12T02:04:13.974Z,2.60
2019-01-12T02:06:42.153Z,2.60
2019-01-12T02:09:09.965Z,2.60
2019-01-12T02:11:37.616Z,2.60
2019-01-12T02:14:05.671Z,2.60
2019-01-12T02:16:33.578Z,2.60
2019-01-12T02:19:01.288Z,2.70
2019-01-12T02:21:29.527Z,2.70
2019-01-12T02:23:57.302Z,2.70
2019-01-12T02:26:25.222Z,2.70
2019-01-12T02:28:53.097Z,2.70
2019-01-12T02:31:20.798Z,2.80
2019-01-12T02:33:48.440Z,2.90
2019-01-12T02:36:16.214Z,2.80
2019-01-12T02:38:43.964Z,2.80
2019-01-12T02:41:11.775Z,2.80
2019-01-12T02:43:39.436Z,2.80
2019-01-12T02:46:07.222Z,2.80
2019-01-12T02:48:34.871Z,2.80
2019-01-12T02:51:02.835Z,2.80
2019-01-12T02:53:30.743Z,2.80
2019-01-12T02:55:58.331Z,2.90
2019-01-12T02:58:26.070Z,2.90
2019-01-12T03:00:54.483Z,2.90
2019-01-12T03:03:22.144Z,3.00
2019-01-12T03:05:50.205Z,2.90
2019-01-12T03:08:17.952Z,3.00
2019-01-12T03:10:45.733Z,3.00
2019-01-12T03:13:13.504Z,2.90
2019-01-12T03:15:41.655Z,2.90
2019-01-12T03:18:09.318Z,2.90
2019-01-12T03:20:37.000Z,2.90
2019-01-12T03:23:04.750Z,2.90
2019-01-12T03:25:32.520Z,2.90
2019-01-12T03:28:00.063Z,2.90
2019-01-12T03:30:27.876Z,2.90
2019-01-12T03:32:55.768Z,3.00
2019-01-12T03:35:23.590Z,3.00
2019-01-12T03:37:51.239Z,3.00
2019-01-12T03:40:20.217Z,2.90
2019-01-12T03:42:48.012Z,2.90
2019-01-12T03:45:17.049Z,2.90
2019-01-12T03:47:45.076Z,3.00
2019-01-12T03:50:13.062Z,2.90
2019-01-12T03:52:40.815Z,2.90
2019-01-12T03:55:09.502Z,2.90
2019-01-12T03:57:37.181Z,2.90
2019-01-12T04:00:11.715Z,2.90
2019-01-12T04:02:39.720Z,2.90
2019-01-12T04:05:08.500Z,3.00
2019-01-12T04:07:36.423Z,2.90
2019-01-12T04:10:05.402Z,2.90
2019-01-12T04:12:33.302Z,2.80
2019-01-12T04:15:01.305Z,2.80
2019-01-12T04:17:28.768Z,2.80
2019-01-12T04:19:57.324Z,2.80
2019-01-12T04:22:25.004Z,2.80
2019-01-12T04:24:53.264Z,2.80
2019-01-12T04:27:21.048Z,2.80
2019-01-12T04:29:48.721Z,2.80
2019-01-12T04:32:16.657Z,2.90
2019-01-12T04:34:44.623Z,2.90
2019-01-12T04:37:12.292Z,2.90
2019-01-12T04:39:40.211Z,2.90
2019-01-12T04:42:08.289Z,2.90
2019-01-12T04:44:36.359Z,3.00
2019-01-12T04:47:04.133Z,3.00
2019-01-12T04:49:31.954Z,3.10
2019-01-12T04:51:59.631Z,3.10
2019-01-12T04:54:27.271Z,3.20
2019-01-12T04:56:54.942Z,3.20
2019-01-12T04:59:22.508Z,3.20
2019-01-12T05:01:50.391Z,3.10
2019-01-12T05:04:17.946Z,3.10
2019-01-12T05:06:45.766Z,3.10
2019-01-12T05:09:13.538Z,3.20
2019-01-12T05:11:41.425Z,3.10
2019-01-12T05:14:09.291Z,3.10
2019-01-12T05:16:36.770Z,3.00
2019-01-12T05:19:04.445Z,3.10
2019-01-12T05:21:32.129Z,3.10
2019-01-12T05:23:59.872Z,3.10
2019-01-12T05:26:27.544Z,3.10
2019-01-12T05:28:55.287Z,3.00
2019-01-12T05:31:23.258Z,3.00
2019-01-12T05:33:50.975Z,3.00
2019-01-12T05:36:18.742Z,3.00
2019-01-12T05:38:46.387Z,2.90
2019-01-12T05:41:14.056Z,2.90
2019-01-12T05:43:41.706Z,2.90
2019-01-12T05:46:09.479Z,3.00
2019-01-12T05:48:37.227Z,3.10
2019-01-12T05:51:05.154Z,3.00
2019-01-12T05:53:33.218Z,3.00
2019-01-12T05:56:00.869Z,3.00
2019-01-12T05:58:28.535Z,2.90
2019-01-12T06:00:56.319Z,2.90
2019-01-12T06:03:23.900Z,3.00
2019-01-12T06:05:51.657Z,3.00
2019-01-12T06:08:19.608Z,2.90
2019-01-12T06:10:47.160Z,2.90
2019-01-12T06:13:14.639Z,2.80
2019-01-12T06:15:43.434Z,2.80
2019-01-12T06:18:11.148Z,2.80
2019-01-12T06:20:38.790Z,2.90
2019-01-12T06:23:07.739Z,2.90
2019-01-12T06:25:35.386Z,2.80
2019-01-12T06:28:03.045Z,2.80
2019-01-12T06:30:31.091Z,2.80
2019-01-12T06:32:58.855Z,2.70
2019-01-12T06:35:26.503Z,2.80
2019-01-12T06:37:54.802Z,2.70
2019-01-12T06:40:22.810Z,2.70
2019-01-12T06:42:50.674Z,2.70
2019-01-12T06:45:18.392Z,2.70
2019-01-12T06:47:46.414Z,2.70
2019-01-12T06:50:16.119Z,2.70
2019-01-12T06:52:43.791Z,2.70
2019-01-12T06:55:12.142Z,2.60
2019-01-12T06:57:40.217Z,2.60
2019-01-12T07:00:14.912Z,2.60
2019-01-12T07:02:42.679Z,2.60
2019-01-12T07:05:10.434Z,2.60
2019-01-12T07:07:38.208Z,2.60
2019-01-12T07:10:07.507Z,2.60
2019-01-12T07:12:35.207Z,2.60
2019-01-12T07:15:06.204Z,2.60
2019-01-12T07:17:34.079Z,2.60
2019-01-12T07:20:02.562Z,2.60
2019-01-12T07:22:30.372Z,2.60
2019-01-12T07:24:58.015Z,2.60
2019-01-12T07:27:25.697Z,2.70
2019-01-12T07:29:53.478Z,2.70
2019-01-12T07:32:21.260Z,2.70
2019-01-12T07:34:49.087Z,2.70
2019-01-12T07:37:18.081Z,2.70
2019-01-12T07:39:46.253Z,2.70
2019-01-12T07:42:14.464Z,2.70
2019-01-12T07:44:42.109Z,2.70
2019-01-12T07:47:09.913Z,2.70
2019-01-12T07:49:37.736Z,2.70
2019-01-12T07:52:05.508Z,2.70
2019-01-12T07:54:33.247Z,2.70
2019-01-12T07:57:01.044Z,2.70
2019-01-12T07:59:28.615Z,2.70
2019-01-12T08:01:56.203Z,2.70
2019-01-12T08:04:24.140Z,2.70
2019-01-12T08:06:52.035Z,2.70
2019-01-12T08:09:20.171Z,2.70
2019-01-12T08:11:48.028Z,2.80
2019-01-12T08:14:15.876Z,2.80
2019-01-12T08:16:43.797Z,2.80
2019-01-12T08:19:11.590Z,2.90
2019-01-12T08:21:39.234Z,2.90
2019-01-12T08:24:07.004Z,2.90
2019-01-12T08:26:34.800Z,2.90
2019-01-12T08:29:02.738Z,2.90
2019-01-12T08:31:30.503Z,2.90
2019-01-12T08:33:58.278Z,3.00
2019-01-12T08:36:26.067Z,3.00
2019-01-12T08:38:53.651Z,3.00
2019-01-12T08:41:22.935Z,3.10
2019-01-12T08:43:50.665Z,3.00
2019-01-12T08:46:18.206Z,3.00
2019-01-12T08:48:46.010Z,3.10
2019-01-12T08:51:13.767Z,3.00
2019-01-12T08:53:41.395Z,3.10
2019-01-12T08:56:09.435Z,3.10
2019-01-12T08:58:37.117Z,3.10
2019-01-12T09:01:05.180Z,3.10
2019-01-12T09:03:32.957Z,3.10
2019-01-12T09:06:00.971Z,3.20
2019-01-12T09:08:28.656Z,3.20
2019-01-12T09:10:56.402Z,3.20
2019-01-12T09:13:24.460Z,3.20
2019-01-12T09:15:52.240Z,3.20
2019-01-12T09:18:20.012Z,3.30
2019-01-12T09:20:47.765Z,3.30
2019-01-12T09:23:15.557Z,3.30
2019-01-12T09:25:43.587Z,3.40
2019-01-12T09:28:12.715Z,3.40
2019-01-12T09:30:40.467Z,3.40
2019-01-12T09:33:09.334Z,3.50
2019-01-12T09:35:37.069Z,3.50
2019-01-12T09:38:04.871Z,3.50
2019-01-12T09:40:32.609Z,3.50
2019-01-12T09:43:00.409Z,3.50
2019-01-12T09:45:28.032Z,3.60
2019-01-12T09:47:55.809Z,3.60
2019-01-12T09:50:23.795Z,3.60
2019-01-12T09:52:52.240Z,3.60
2019-01-12T09:55:20.040Z,3.60
2019-01-12T09:57:47.690Z,3.60
2019-01-12T10:00:21.872Z,3.60
2019-01-12T10:02:49.856Z,3.60
2019-01-12T10:05:18.657Z,3.60
2019-01-12T10:07:46.528Z,3.60
2019-01-12T10:10:15.637Z,3.70
2019-01-12T10:12:43.408Z,3.70
2019-01-12T10:15:12.292Z,3.60
2019-01-12T10:17:40.333Z,3.60
2019-01-12T10:20:12.144Z,3.60
2019-01-12T10:22:39.898Z,3.60
2019-01-12T10:25:08.163Z,3.60
2019-01-12T10:27:35.870Z,3.70
2019-01-12T10:30:08.616Z,3.70
2019-01-12T10:32:36.771Z,3.70
2019-01-12T10:35:05.725Z,3.70
2019-01-12T10:37:33.467Z,3.70
2019-01-12T10:40:01.244Z,3.80
2019-01-12T10:42:28.889Z,3.80
2019-01-12T10:44:57.097Z,3.80
2019-01-12T10:47:24.544Z,3.80
2019-01-12T10:49:53.369Z,3.80
2019-01-12T10:52:21.388Z,3.90
2019-01-12T10:54:49.175Z,3.90
2019-01-12T10:57:16.926Z,3.90
2019-01-12T10:59:44.748Z,3.90
2019-01-12T11:02:12.491Z,3.90
2019-01-12T11:04:40.124Z,3.90
2019-01-12T11:07:16.288Z,3.90
2019-01-12T11:09:44.334Z,3.90
2019-01-12T11:12:12.180Z,3.90
2019-01-12T11:14:39.871Z,3.80
2019-01-12T11:17:07.612Z,3.90
2019-01-12T11:19:35.435Z,3.90
2019-01-12T11:22:03.194Z,3.80
2019-01-12T11:24:31.487Z,3.80
2019-01-12T11:26:59.295Z,3.80
2019-01-12T11:29:27.231Z,3.90
2019-01-12T11:31:54.874Z,3.90
2019-01-12T11:34:22.975Z,3.90
2019-01-12T11:36:50.722Z,3.90
2019-01-12T11:39:18.522Z,3.80
2019-01-12T11:41:46.168Z,3.90
2019-01-12T11:44:14.301Z,3.90
2019-01-12T11:46:42.217Z,3.90
2019-01-12T11:49:09.890Z,3.90
2019-01-12T11:51:37.609Z,3.80
2019-01-12T11:54:05.367Z,3.80
2019-01-12T11:56:33.157Z,3.80
2019-01-12T11:59:00.935Z,3.80
2019-01-12T12:01:29.047Z,3.80
2019-01-12T12:03:56.744Z,3.80
2019-01-12T12:06:24.523Z,3.80
2019-01-12T12:08:52.175Z,3.90
2019-01-12T12:11:19.963Z,3.90
2019-01-12T12:13:47.871Z,3.90
2019-01-12T12:16:15.666Z,3.90
2019-01-12T12:18:43.422Z,3.90
2019-01-12T12:21:11.229Z,3.90
2019-01-12T12:23:39.572Z,3.90
2019-01-12T12:26:07.288Z,3.90
2019-01-12T12:28:35.322Z,3.90
2019-01-12T12:31:03.435Z,3.80
2019-01-12T12:33:31.503Z,3.80
2019-01-12T12:35:59.309Z,3.80
2019-01-12T12:38:27.328Z,3.90
2019-01-12T12:40:54.981Z,3.90
2019-01-12T12:43:22.972Z,3.80
2019-01-12T12:45:51.016Z,3.90
2019-01-12T12:48:18.761Z,3.80
2019-01-12T12:50:46.451Z,3.80
2019-01-12T12:53:14.202Z,3.80
2019-01-12T12:55:42.290Z,3.80
2019-01-12T12:58:10.308Z,3.80
2019-01-12T13:00:39.424Z,3.80
2019-01-12T13:03:07.168Z,3.90
2019-01-12T13:05:35.346Z,3.90
2019-01-12T13:08:03.617Z,3.80
2019-01-12T13:10:32.083Z,3.80
2019-01-12T13:13:03.212Z,3.80
2019-01-12T13:15:31.007Z,3.80
2019-01-12T13:17:58.860Z,3.80
2019-01-12T13:20:26.886Z,3.80
2019-01-12T13:22:54.917Z,3.70
2019-01-12T13:25:22.691Z,3.70
2019-01-12T13:27:50.751Z,3.70
2019-01-12T13:30:22.419Z,3.70
2019-01-12T13:32:50.202Z,3.80
2019-01-12T13:35:18.228Z,3.70
2019-01-12T13:37:46.774Z,3.70
2019-01-12T13:40:17.660Z,3.70
2019-01-12T13:42:45.347Z,3.60
2019-01-12T13:45:15.869Z,3.70
2019-01-12T13:47:43.671Z,3.70
2019-01-12T13:50:13.608Z,3.80
2019-01-12T13:52:41.411Z,3.70
2019-01-12T13:55:12.112Z,3.70
2019-01-12T13:57:47.057Z,3.70
2019-01-12T14:00:23.111Z,3.70
2019-01-12T14:02:51.658Z,3.70
2019-01-12T14:05:19.673Z,3.70
2019-01-12T14:07:47.985Z,3.70
2019-01-12T14:10:17.311Z,3.70
2019-01-12T14:12:45.497Z,3.70
2019-01-12T14:15:14.114Z,3.70
2019-01-12T14:17:42.443Z,3.70
2019-01-12T14:20:20.729Z,3.70
2019-01-12T14:22:48.611Z,3.70
2019-01-12T14:25:16.368Z,3.60
2019-01-12T14:27:44.154Z,3.60
2019-01-12T14:30:15.664Z,3.60
2019-01-12T14:32:43.530Z,3.60
2019-01-12T14:35:12.070Z,3.60
2019-01-12T14:37:40.126Z,3.50
2019-01-12T14:40:11.366Z,3.60
2019-01-12T14:42:39.536Z,3.60
2019-01-12T14:45:12.308Z,3.50
2019-01-12T14:47:40.005Z,3.50
2019-01-12T14:50:08.203Z,3.50
2019-01-12T14:52:36.106Z,3.50
2019-01-12T14:55:06.228Z,3.40
2019-01-12T14:57:35.447Z,3.40
2019-01-12T15:00:07.817Z,3.40
2019-01-12T15:02:35.623Z,3.40
2019-01-12T15:05:05.031Z,3.40
2019-01-12T15:07:32.713Z,3.30
2019-01-12T15:10:00.732Z,3.30
2019-01-12T15:12:28.940Z,3.30
2019-01-12T15:14:56.682Z,3.30
2019-01-12T15:17:24.381Z,3.30
2019-01-12T15:19:52.130Z,3.30
2019-01-12T15:22:20.172Z,3.20
2019-01-12T15:24:48.176Z,3.20
2019-01-12T15:27:15.759Z,3.30
2019-01-12T15:29:43.563Z,3.30
2019-01-12T15:32:11.767Z,3.30
2019-01-12T15:34:39.420Z,3.30
2019-01-12T15:37:07.447Z,3.20
2019-01-12T15:39:35.228Z,3.10
2019-01-12T15:42:03.253Z,3.10
2019-01-12T15:44:31.144Z,3.10
2019-01-12T15:46:58.890Z,3.10
2019-01-12T15:49:26.942Z,3.10
2019-01-12T15:51:54.592Z,3.10
2019-01-12T15:54:22.559Z,3.00
2019-01-12T15:56:50.729Z,3.00
2019-01-12T15:59:18.517Z,3.00
2019-01-12T16:01:46.207Z,3.00
2019-01-12T16:04:13.899Z,3.00
2019-01-12T16:06:41.836Z,3.00
2019-01-12T16:09:09.892Z,3.00
2019-01-12T16:11:37.439Z,3.00
2019-01-12T16:14:05.245Z,2.90
2019-01-12T16:16:33.539Z,3.00
2019-01-12T16:19:01.284Z,3.00
2019-01-12T16:21:29.108Z,3.00
2019-01-12T16:23:56.963Z,3.00
2019-01-12T16:26:24.751Z,3.10
2019-01-12T16:28:52.428Z,3.10
2019-01-12T16:31:20.385Z,3.10
2019-01-12T16:33:48.182Z,3.10
2019-01-12T16:36:15.725Z,3.10
2019-01-12T16:38:43.571Z,3.20
2019-01-12T16:41:11.231Z,3.20
2019-01-12T16:43:38.919Z,3.10
2019-01-12T16:46:06.663Z,3.20
2019-01-12T16:48:34.455Z,3.20
2019-01-12T16:51:02.364Z,3.20
2019-01-12T16:53:30.165Z,3.20
2019-01-12T16:55:58.069Z,3.20
2019-01-12T16:58:30.346Z,3.20
2019-01-12T17:00:56.314Z,3.20
2019-01-12T17:03:24.164Z,3.20
2019-01-12T17:05:51.956Z,3.20
2019-01-12T17:08:20.010Z,3.20
2019-01-12T17:10:47.738Z,3.20
2019-01-12T17:13:15.570Z,3.20
2019-01-12T17:15:43.750Z,3.20
2019-01-12T17:18:11.495Z,3.20
2019-01-12T17:20:39.657Z,3.20
2019-01-12T17:23:07.626Z,3.30
2019-01-12T17:25:35.660Z,3.20
2019-01-12T17:28:03.919Z,3.20
2019-01-12T17:30:31.736Z,3.20
2019-01-12T17:32:59.831Z,3.20
2019-01-12T17:35:29.357Z,3.20
2019-01-12T17:37:57.527Z,3.20
2019-01-12T17:40:25.683Z,3.20
2019-01-12T17:42:54.715Z,3.30
2019-01-12T17:45:24.232Z,3.30
2019-01-12T17:47:52.096Z,3.30
2019-01-12T17:50:22.018Z,3.30
2019-01-12T17:52:49.933Z,3.30
2019-01-12T17:55:20.202Z,3.30
2019-01-12T17:57:48.749Z,3.30
2019-01-12T18:00:41.821Z,3.30
2019-01-12T18:03:09.620Z,3.20
2019-01-12T18:05:38.667Z,3.20
2019-01-12T18:08:16.602Z,3.20
2019-01-12T18:10:46.216Z,3.20
2019-01-12T18:13:26.349Z,3.20
2019-01-12T18:15:54.299Z,3.20
2019-01-12T18:18:22.359Z,3.20
2019-01-12T18:20:53.310Z,3.10
2019-01-12T18:23:21.355Z,3.00
2019-01-12T18:25:49.196Z,3.00
2019-01-12T18:28:22.004Z,3.00
2019-01-12T18:30:58.140Z,3.00
2019-01-12T18:33:26.043Z,3.00
2019-01-12T18:35:54.375Z,3.00
2019-01-12T18:38:27.911Z,3.00
2019-01-12T18:40:57.528Z,3.10
2019-01-12T18:43:25.609Z,3.00
2019-01-12T18:45:53.674Z,3.10
2019-01-12T18:48:21.438Z,3.10
2019-01-12T18:50:51.572Z,3.10
2019-01-12T18:53:19.342Z,3.10
2019-01-12T18:55:47.399Z,3.10
2019-01-12T18:58:18.549Z,3.10
2019-01-12T19:00:50.208Z,3.10
2019-01-12T19:03:18.099Z,3.10
2019-01-12T19:05:46.158Z,3.20
2019-01-12T19:08:13.929Z,3.20
2019-01-12T19:10:42.030Z,3.10
2019-01-12T19:13:10.355Z,3.10
2019-01-12T19:15:38.160Z,3.10
2019-01-12T19:18:05.904Z,3.10
2019-01-12T19:20:33.751Z,3.10
2019-01-12T19:23:01.546Z,3.00
2019-01-12T19:25:29.134Z,2.90
2019-01-12T19:27:56.837Z,2.80
2019-01-12T19:30:24.934Z,2.70
2019-01-12T19:32:52.724Z,2.70
2019-01-12T19:35:20.569Z,2.60
2019-01-12T19:37:48.371Z,2.60
2019-01-12T19:40:19.536Z,2.60
2019-01-12T19:42:47.307Z,2.50
2019-01-12T19:45:15.280Z,2.50
2019-01-12T19:47:43.584Z,2.40
2019-01-12T19:50:17.620Z,2.40
2019-01-12T19:52:45.368Z,2.40
2019-01-12T19:55:13.413Z,2.40
2019-01-12T19:57:42.920Z,2.40
2019-01-12T20:00:14.583Z,2.40
2019-01-12T20:02:42.412Z,2.40
2019-01-12T20:05:11.220Z,2.40
2019-01-12T20:07:39.600Z,2.50
2019-01-12T20:10:10.304Z,2.50
2019-01-12T20:12:38.100Z,2.60
2019-01-12T20:15:09.583Z,2.60
2019-01-12T20:17:37.928Z,2.60
2019-01-12T20:20:07.480Z,2.60
2019-01-12T20:22:35.679Z,2.70
2019-01-12T20:25:05.752Z,2.70
2019-01-12T20:27:33.945Z,2.70
2019-01-12T20:30:02.145Z,2.80
2019-01-12T20:33:06.619Z,2.80
2019-01-12T20:36:17.562Z,2.80
2019-01-12T20:39:27.621Z,2.80
2019-01-12T20:42:48.355Z,2.80
2019-01-12T20:45:53.876Z,2.90
2019-01-12T20:49:06.608Z,2.90
2019-01-12T20:52:33.222Z,2.90
2019-01-12T20:56:14.321Z,2.90
2019-01-12T20:59:18.126Z,2.90
2019-01-12T21:03:07.338Z,3.00
2019-01-12T21:05:50.734Z,3.00
2019-01-12T21:08:38.363Z,3.00
2019-01-12T21:12:21.702Z,3.00
2019-01-12T21:15:15.825Z,3.00
2019-01-12T21:17:44.119Z,3.00
2019-01-12T21:20:11.964Z,3.00
2019-01-12T21:22:40.002Z,3.00
2019-01-12T21:25:08.108Z,3.00
2019-01-12T21:27:36.011Z,3.00
2019-01-12T21:30:09.361Z,3.00
2019-01-12T21:32:38.056Z,3.00
2019-01-12T21:35:07.612Z,3.00
2019-01-12T21:37:35.735Z,3.00
2019-01-12T21:40:05.375Z,3.00
2019-01-12T21:42:33.164Z,3.10
2019-01-12T21:45:01.438Z,3.10
2019-01-12T21:47:29.224Z,3.10
2019-01-12T21:49:56.967Z,3.10
2019-01-12T21:52:25.019Z,3.10
2019-01-12T21:54:52.795Z,3.10
2019-01-12T21:57:20.542Z,3.10
2019-01-12T21:59:48.310Z,3.10
2019-01-12T22:02:16.308Z,3.00
2019-01-12T22:04:44.115Z,3.00
2019-01-12T22:07:12.014Z,3.10
2019-01-12T22:09:39.654Z,3.00
2019-01-12T22:12:07.543Z,3.00
2019-01-12T22:14:35.294Z,3.00
2019-01-12T22:17:03.035Z,3.00
2019-01-12T22:19:31.027Z,3.10
2019-01-12T22:21:59.082Z,3.10
2019-01-12T22:24:26.905Z,3.00
2019-01-12T22:26:54.964Z,3.00
2019-01-12T22:29:22.739Z,3.00
2019-01-12T22:31:50.317Z,3.00
2019-01-12T22:34:18.040Z,3.00
2019-01-12T22:36:45.700Z,3.00
2019-01-12T22:39:13.388Z,3.00
2019-01-12T22:41:41.064Z,3.10
2019-01-12T22:44:08.712Z,3.10
2019-01-12T22:46:36.475Z,3.10
2019-01-12T22:49:05.289Z,3.10
2019-01-12T22:51:33.055Z,3.10
2019-01-12T22:54:01.152Z,3.10
2019-01-12T22:56:28.813Z,3.10
2019-01-12T22:58:56.842Z,3.00
2019-01-12T23:02:00.635Z,3.00
2019-01-12T23:04:30.432Z,3.00
2019-01-12T23:07:02.289Z,2.90
2019-01-12T23:09:30.381Z,2.90
2019-01-12T23:11:58.128Z,2.90
2019-01-12T23:14:25.911Z,2.80
2019-01-12T23:16:53.656Z,2.80
2019-01-12T23:19:21.426Z,2.80
2019-01-12T23:21:49.208Z,2.80
2019-01-12T23:24:17.002Z,2.70
2019-01-12T23:26:44.756Z,2.70
2019-01-12T23:29:12.532Z,2.70
2019-01-12T23:31:43.400Z,2.80
2019-01-12T23:34:11.244Z,2.70
2019-01-12T23:36:39.116Z,2.70
2019-01-12T23:39:09.377Z,2.70
2019-01-12T23:41:37.344Z,2.70
2019-01-12T23:44:06.272Z,2.70
2019-01-12T23:46:34.037Z,2.70
2019-01-12T23:49:02.079Z,2.70
2019-01-12T23:51:29.759Z,2.80
2019-01-12T23:53:57.704Z,2.70
2019-01-12T23:56:25.707Z,2.80
2019-01-12T23:58:53.308Z,2.80
